Time;durP1;ratioP1;P1;durP2;ratioP2;P2;SDS_P1;SDS_P2;PMS_P1;PMS_P2;Temp;Humidity;BMP_temperature;BMP_pressure;BME280_temperature;BME280_humidity;BME280_pressure;Samples;Min_cycle;Max_cycle;Signal;HPM_P1;HPM_P2
2023/12/14 00:00:53;;;;;;;6.05;5.45;;;;;;;5.98;100.00;150172.78;13066316;22;20039;-80
2023/12/14 00:05:55;;;;;;;6.35;5.25;;;;;;;6.13;100.00;150211.38;13043208;22;20326;-81
2023/12/14 00:10:56;;;;;;;5.88;5.28;;;;;;;6.03;100.00;150185.66;13047876;22;20406;-81
2023/12/14 00:15:59;;;;;;;4.55;4.10;;;;;;;5.76;100.00;150117.44;13079434;22;20015;-81
2023/12/14 00:21:00;;;;;;;6.00;5.40;;;;;;;5.69;100.00;150100.69;13075564;22;20019;-81
2023/12/14 00:26:03;;;;;;;8.45;4.78;;;;;;;5.80;100.00;150127.72;13076749;22;20020;-80
2023/12/14 00:31:05;;;;;;;4.68;3.90;;;;;;;5.82;100.00;150132.84;13075936;22;20018;-80
2023/12/14 00:36:07;;;;;;;5.45;4.72;;;;;;;5.97;100.00;150171.47;13076277;22;20046;-80
2023/12/14 00:41:09;;;;;;;4.15;3.70;;;;;;;5.68;100.00;150096.84;13085082;22;20015;-79
2023/12/14 00:46:11;;;;;;;5.82;4.45;;;;;;;5.62;100.00;150082.66;13078658;22;20003;-84
2023/12/14 00:51:13;;;;;;;7.15;5.63;;;;;;;5.50;100.00;150053.13;13061647;22;20102;-80
2023/12/14 00:56:15;;;;;;;10.18;6.85;;;;;;;5.55;100.00;150064.69;13077022;22;20437;-81
2023/12/14 01:01:18;;;;;;;10.35;7.53;;;;;;;5.43;100.00;150033.81;13049232;22;20102;-80
2023/12/14 01:06:20;;;;;;;8.32;6.65;;;;;;;5.47;100.00;150044.09;13048762;22;20023;-80
2023/12/14 01:11:22;;;;;;;8.45;7.65;;;;;;;5.54;100.00;150063.41;13048841;22;20019;-81
2023/12/14 01:16:27;;;;;;;8.65;7.55;;;;;;;5.45;100.00;150040.25;13028298;22;20102;-79
2023/12/14 01:21:29;;;;;;;7.05;6.35;;;;;;;5.40;100.00;150027.41;13059419;22;20042;-78
2023/12/14 01:26:30;;;;;;;8.02;6.10;;;;;;;5.39;100.00;150023.50;13035291;22;20072;-80
2023/12/14 01:31:32;;;;;;;8.27;6.53;;;;;;;5.39;100.00;150023.50;13088333;22;20018;-81
2023/12/14 01:36:34;;;;;;;7.90;6.75;;;;;;;5.35;100.00;150013.22;13061684;22;20019;-79
2023/12/14 01:41:36;;;;;;;6.57;5.25;;;;;;;5.33;100.00;150009.38;13083062;22;20042;-83
2023/12/14 01:46:38;;;;;;;14.82;7.38;;;;;;;5.61;100.00;150078.81;13026809;22;20019;-82
2023/12/14 01:51:40;;;;;;;9.07;6.38;;;;;;;5.48;100.00;150046.66;13052261;22;20491;-78
2023/12/14 01:56:42;;;;;;;7.82;6.10;;;;;;;5.84;100.00;150137.97;13058061;22;20019;-79
2023/12/14 02:01:53;;;;;;;8.38;6.25;;;;;;;5.57;100.00;150071.09;13053792;22;20026;-82
2023/12/14 02:06:54;;;;;;;9.32;6.43;;;;;;;5.46;100.00;150042.81;13049637;22;20019;-80
2023/12/14 02:11:56;;;;;;;9.48;5.88;;;;;;;5.39;100.00;150023.50;13075474;22;20011;-80
2023/12/14 02:16:58;;;;;;;7.93;5.93;;;;;;;5.43;100.00;150035.09;13077569;22;20019;-82
2023/12/14 02:22:00;;;;;;;9.35;6.28;;;;;;;5.62;100.00;150081.38;13050212;22;20011;-81
2023/12/14 02:27:02;;;;;;;7.50;6.40;;;;;;;5.66;100.00;150091.66;13051538;22;20080;-80
2023/12/14 02:32:05;;;;;;;18.30;7.45;;;;;;;5.59;100.00;150074.97;13051573;22;20015;-80
2023/12/14 02:37:08;;;;;;;7.22;5.93;;;;;;;5.41;100.00;150029.97;13025833;22;20023;-81
2023/12/14 02:42:09;;;;;;;7.32;5.40;;;;;;;5.41;100.00;150029.97;13052060;22;20022;-80
2023/12/14 02:47:11;;;;;;;6.85;5.25;;;;;;;5.43;100.00;150033.81;13050794;22;20019;-80
2023/12/14 02:52:13;;;;;;;8.93;6.95;;;;;;;5.48;100.00;150046.66;13076261;22;20518;-80
2023/12/14 02:57:14;;;;;;;7.53;5.70;;;;;;;5.49;100.00;150049.22;13025101;22;20072;-81
2023/12/14 03:02:16;;;;;;;9.07;6.43;;;;;;;5.56;100.00;150067.25;13046705;22;20011;-81
2023/12/14 03:07:19;;;;;;;8.48;6.88;;;;;;;5.56;100.00;150067.25;13044949;22;20090;-81
2023/12/14 03:12:20;;;;;;;10.30;6.70;;;;;;;5.44;100.00;150037.66;13072952;22;20022;-81
2023/12/14 03:17:22;;;;;;;7.03;6.32;;;;;;;5.43;100.00;150035.09;13047939;22;20019;-82
2023/12/14 03:22:24;;;;;;;8.30;6.47;;;;;;;5.35;100.00;150014.50;13049745;22;20011;-81
2023/12/14 03:27:26;;;;;;;7.28;5.80;;;;;;;5.32;100.00;150008.09;13050290;22;20022;-80
2023/12/14 03:32:27;;;;;;;8.02;6.70;;;;;;;5.31;100.00;150004.22;13045989;22;20039;-79
2023/12/14 03:37:29;;;;;;;9.00;6.45;;;;;;;5.40;100.00;150027.41;13071530;22;20019;-81
2023/12/14 03:42:31;;;;;;;9.63;7.78;;;;;;;5.59;100.00;150074.97;13053365;22;20090;-80
2023/12/14 03:47:33;;;;;;;9.38;6.75;;;;;;;5.37;100.00;150019.69;13096537;22;20015;-79
2023/12/14 03:52:35;;;;;;;9.63;7.32;;;;;;;5.63;100.00;150084.00;13096689;22;20016;-78
2023/12/14 03:57:37;;;;;;;8.65;6.88;;;;;;;5.43;100.00;150035.09;13091494;22;20019;-79
2023/12/14 04:02:40;;;;;;;8.68;7.78;;;;;;;5.54;100.00;150062.13;13065938;22;20034;-80
2023/12/14 04:07:41;;;;;;;9.88;8.20;;;;;;;5.44;100.00;150036.38;13076784;22;20047;-82
2023/12/14 04:12:43;;;;;;;10.13;8.27;;;;;;;5.33;100.00;150009.38;13068331;22;20019;-79
2023/12/14 04:17:45;;;;;;;18.05;11.07;;;;;;;5.35;100.00;150014.50;13067538;22;20053;-78
2023/12/14 04:22:48;;;;;;;20.48;11.45;;;;;;;5.47;100.00;150045.38;13076775;22;20011;-84
2023/12/14 04:27:50;;;;;;;22.38;12.57;;;;;;;5.44;100.00;150037.66;13059650;22;20011;-83
2023/12/14 04:32:53;;;;;;;13.27;10.93;;;;;;;5.45;100.00;150040.25;13111572;22;20016;-82
2023/12/14 04:37:55;;;;;;;11.90;9.70;;;;;;;5.44;100.00;150036.38;13085777;22;20006;-84
2023/12/14 04:42:57;;;;;;;13.27;11.00;;;;;;;5.40;100.00;150026.06;13082544;22;20023;-85
2023/12/14 04:47:58;;;;;;;16.58;10.65;;;;;;;5.51;100.00;150054.38;13059605;22;19999;-85
2023/12/14 04:53:00;;;;;;;13.27;9.85;;;;;;;5.44;100.00;150037.66;13085163;22;20003;-83
2023/12/14 04:58:02;;;;;;;31.75;13.52;;;;;;;5.74;100.00;150113.53;13084782;22;20023;-81
2023/12/14 05:03:04;;;;;;;31.60;15.00;;;;;;;6.04;100.00;150188.22;13082158;22;20011;-86
2023/12/14 05:08:06;;;;;;;21.13;13.70;;;;;;;5.87;100.00;150144.41;13085234;22;20015;-83
2023/12/14 05:13:07;;;;;;;25.48;13.60;;;;;;;5.73;100.00;150109.69;13081333;22;20025;-82
2023/12/14 05:18:09;;;;;;;32.97;14.98;;;;;;;5.61;100.00;150078.81;13054305;22;20015;-79
2023/12/14 05:23:14;;;;;;;33.35;15.50;;;;;;;5.79;100.00;150125.13;13018454;22;20016;-81
2023/12/14 05:28:16;;;;;;;27.52;13.13;;;;;;;5.80;100.00;150127.72;13046828;22;20014;-81
2023/12/14 05:33:18;;;;;;;28.77;14.07;;;;;;;5.71;100.00;150104.53;13048620;22;20020;-82
2023/12/14 05:38:20;;;;;;;27.00;14.05;;;;;;;5.64;100.00;150087.84;13045160;22;20046;-78
2023/12/14 05:43:21;;;;;;;23.00;13.00;;;;;;;5.53;100.00;150059.50;13045177;22;20019;-81
2023/12/14 05:48:23;;;;;;;31.38;15.02;;;;;;;5.54;100.00;150062.13;13046954;22;20022;-79
2023/12/14 05:53:25;;;;;;;31.90;15.63;;;;;;;5.55;100.00;150065.97;13043675;22;20012;-78
2023/12/14 05:58:28;;;;;;;20.33;13.55;;;;;;;5.39;100.00;150023.50;13022023;22;20027;-81
2023/12/14 06:03:31;;;;;;;18.42;13.13;;;;;;;5.44;100.00;150037.66;13022233;22;20023;-80
2023/12/14 06:08:33;;;;;;;17.48;10.85;;;;;;;5.39;100.00;150023.50;13048372;22;20004;-81
2023/12/14 06:13:35;;;;;;;11.95;8.80;;;;;;;5.47;100.00;150044.09;13020390;22;20004;-82
2023/12/14 06:18:39;;;;;;;11.35;9.07;;;;;;;5.47;100.00;150044.09;13053670;22;20003;-83
2023/12/14 06:23:41;;;;;;;11.32;7.07;;;;;;;5.42;100.00;150032.53;13113431;22;20010;-82
2023/12/14 06:28:43;;;;;;;7.90;5.95;;;;;;;5.34;100.00;150011.94;13086362;22;20003;-83
2023/12/14 06:33:45;;;;;;;8.60;6.85;;;;;;;5.25;100.00;149988.81;13085032;22;20000;-81
2023/12/14 06:38:46;;;;;;;12.82;8.32;;;;;;;5.19;100.00;149974.66;13112247;22;20019;-81
2023/12/14 06:43:49;;;;;;;19.02;10.05;;;;;;;5.25;100.00;149988.81;13112682;22;20010;-79
2023/12/14 06:48:51;;;;;;;24.00;10.60;;;;;;;5.20;100.00;149975.94;13059814;22;20015;-80
2023/12/14 06:53:53;;;;;;;18.25;11.23;;;;;;;5.17;100.00;149968.22;13110102;22;20022;-78
2023/12/14 06:58:55;;;;;;;26.42;12.65;;;;;;;5.06;100.00;149941.25;13104429;22;20082;-78
2023/12/14 07:03:57;;;;;;;22.98;11.00;;;;;;;4.99;100.00;149923.22;13071581;22;20011;-79
2023/12/14 07:08:58;;;;;;;30.10;13.63;;;;;;;4.90;100.00;149900.09;13101537;22;20006;-79
2023/12/14 07:14:00;;;;;;;19.92;10.95;;;;;;;4.83;100.00;149882.13;13057429;22;20140;-78
2023/12/14 07:19:02;;;;;;;24.40;11.65;;;;;;;4.89;100.00;149898.81;13112064;22;19996;-83
2023/12/14 07:24:04;;;;;;;21.92;10.82;;;;;;;4.89;100.00;149898.81;13112648;22;19999;-79
2023/12/14 07:29:06;;;;;;;23.88;10.45;;;;;;;4.77;100.00;149867.94;13080864;22;20004;-81
2023/12/14 07:34:08;;;;;;;25.95;11.40;;;;;;;4.77;100.00;149867.94;13086399;22;19995;-82
2023/12/14 07:39:09;;;;;;;17.40;11.85;;;;;;;4.79;100.00;149874.41;13085724;22;20012;-80
2023/12/14 07:44:11;;;;;;;17.00;11.60;;;;;;;4.75;100.00;149864.13;13081296;22;20023;-77
2023/12/14 07:49:13;;;;;;;25.75;10.65;;;;;;;4.84;100.00;149885.97;13084914;22;20019;-80
2023/12/14 07:54:15;;;;;;;14.13;10.23;;;;;;;4.95;100.00;149914.22;13071312;22;20019;-78
2023/12/14 07:59:17;;;;;;;11.05;8.93;;;;;;;4.73;100.00;149857.66;13066209;22;20019;-81
2023/12/14 08:04:19;;;;;;;11.55;8.27;;;;;;;4.82;100.00;149880.78;13085199;22;20437;-80
2023/12/14 08:09:20;;;;;;;8.25;6.50;;;;;;;4.81;100.00;149879.53;13029605;22;20077;-80
2023/12/14 08:14:22;;;;;;;8.73;6.15;;;;;;;4.79;100.00;149873.13;13079391;22;20015;-80
2023/12/14 08:19:24;;;;;;;7.22;6.05;;;;;;;4.87;100.00;149893.69;13076534;22;20019;-79
2023/12/14 08:24:27;;;;;;;7.40;5.30;;;;;;;4.91;100.00;149903.94;13079639;22;20015;-81
2023/12/14 08:29:29;;;;;;;6.63;4.43;;;;;;;4.80;100.00;149876.97;13055939;22;20015;-80
2023/12/14 08:34:30;;;;;;;5.70;4.05;;;;;;;4.72;100.00;149855.09;13078969;22;20007;-81
2023/12/14 08:39:32;;;;;;;4.43;3.72;;;;;;;4.79;100.00;149873.13;13052236;22;20026;-80
2023/12/14 08:44:34;;;;;;;4.97;3.88;;;;;;;4.83;100.00;149883.41;13051277;22;20019;-81
2023/12/14 08:49:36;;;;;;;4.25;3.30;;;;;;;4.75;100.00;149862.84;13025067;22;20023;-81
2023/12/14 08:54:38;;;;;;;6.82;5.18;;;;;;;4.98;100.00;149920.66;13057540;22;20015;-81
2023/12/14 08:59:39;;;;;;;6.25;3.78;;;;;;;4.98;100.00;149920.66;13076130;22;20030;-79
2023/12/14 09:04:45;;;;;;;4.57;4.18;;;;;;;4.98;100.00;149921.94;13102217;22;20017;-79
2023/12/14 09:09:47;;;;;;;5.07;3.25;;;;;;;4.73;100.00;149858.94;13081750;22;20030;-79
2023/12/14 09:14:49;;;;;;;4.80;2.65;;;;;;;4.71;100.00;149852.56;13080390;22;20015;-79
2023/12/14 09:19:50;;;;;;;4.20;2.88;;;;;;;4.60;100.00;149824.25;13075886;22;20041;-81
2023/12/14 09:24:53;;;;;;;3.88;2.53;;;;;;;4.68;100.00;149844.81;13064743;22;20023;-81
2023/12/14 09:29:55;;;;;;;3.03;2.28;;;;;;;4.61;100.00;149826.84;13029938;22;20015;-81
2023/12/14 09:34:57;;;;;;;3.83;3.03;;;;;;;4.61;100.00;149826.84;13052039;22;20016;-80
2023/12/14 09:39:59;;;;;;;4.90;2.55;;;;;;;4.51;100.00;149803.69;13085779;22;20098;-78
2023/12/14 09:45:00;;;;;;;4.22;2.97;;;;;;;4.48;100.00;149796.00;13044331;22;19999;-80
2023/12/14 09:50:03;;;;;;;4.90;3.15;;;;;;;4.33;100.00;149757.44;13112705;22;20009;-79
2023/12/14 09:55:05;;;;;;;3.92;2.90;;;;;;;4.35;100.00;149762.59;13087533;22;20008;-79
2023/12/14 10:00:13;;;;;;;3.47;2.83;;;;;;;4.43;100.00;149781.88;13085602;22;20019;-80
2023/12/14 10:05:15;;;;;;;4.43;3.40;;;;;;;4.52;100.00;149806.28;13076644;22;20031;-81
2023/12/14 10:10:17;;;;;;;3.55;2.90;;;;;;;4.41;100.00;149778.00;13058674;22;20019;-81
2023/12/14 10:15:19;;;;;;;6.20;4.28;;;;;;;4.30;100.00;149749.75;13023234;22;20011;-79
2023/12/14 10:20:21;;;;;;;5.10;4.18;;;;;;;4.27;100.00;149743.31;13073978;22;20420;-80
2023/12/14 10:25:23;;;;;;;5.55;4.75;;;;;;;4.24;100.00;149734.31;13075561;22;20015;-80
2023/12/14 10:30:25;;;;;;;5.53;4.35;;;;;;;4.11;100.00;149702.19;13072620;22;20480;-80
2023/12/14 10:35:27;;;;;;;6.18;4.20;;;;;;;4.11;100.00;149700.91;13070619;22;20022;-79
2023/12/14 10:40:30;;;;;;;6.45;4.88;;;;;;;4.08;100.00;149694.50;13020568;22;20019;-80
2023/12/14 10:45:32;;;;;;;6.72;4.80;;;;;;;4.16;100.00;149715.09;13019239;22;20019;-80
2023/12/14 10:50:36;;;;;;;5.97;5.15;;;;;;;4.18;100.00;149720.19;13016981;22;20026;-80
2023/12/14 10:55:43;;;;;;;8.35;5.47;;;;;;;4.30;100.00;149751.03;13043414;22;20015;-82
2023/12/14 11:00:59;;;;;;;7.93;4.93;;;;;;;4.32;100.00;149754.88;13048619;22;20023;-81
2023/12/14 11:06:00;;;;;;;4.63;4.10;;;;;;;4.26;100.00;149740.75;13050696;22;20077;-82
2023/12/14 11:11:20;;;;;;;5.68;4.38;;;;;;;4.30;100.00;149751.03;13077438;22;20441;-80
2023/12/14 11:16:23;;;;;;;6.78;4.25;;;;;;;4.29;100.00;149747.16;13018868;22;20067;-80
2023/12/14 11:21:25;;;;;;;5.53;4.50;;;;;;;4.25;100.00;149736.88;13049963;22;20023;-79
2023/12/14 11:26:28;;;;;;;5.80;4.43;;;;;;;4.11;100.00;149700.91;13048930;22;20041;-78
2023/12/14 11:31:30;;;;;;;5.28;4.75;;;;;;;4.15;100.00;149711.19;13078524;22;20026;-78
2023/12/14 11:36:32;;;;;;;6.22;4.65;;;;;;;4.07;100.00;149691.91;13044457;22;20022;-80
2023/12/14 11:41:34;;;;;;;6.38;5.20;;;;;;;4.14;100.00;149708.63;13042503;22;20099;-79
2023/12/14 11:46:36;;;;;;;5.22;4.28;;;;;;;4.12;100.00;149703.47;13039765;22;20019;-79
2023/12/14 11:51:39;;;;;;;5.47;4.93;;;;;;;4.17;100.00;149716.34;13040514;22;20015;-78
2023/12/14 11:56:48;;;;;;;5.30;3.92;;;;;;;4.19;100.00;149722.75;13070130;22;20448;-81
2023/12/14 12:01:58;;;;;;;6.97;4.63;;;;;;;4.16;100.00;149713.75;13041424;22;20015;-80
2023/12/14 12:07:02;;;;;;;5.32;4.05;;;;;;;4.23;100.00;149731.75;13042048;22;20026;-80
2023/12/14 12:12:12;;;;;;;6.47;3.72;;;;;;;4.37;100.00;149766.44;13066921;22;20034;-79
2023/12/14 12:17:15;;;;;;;8.77;4.50;;;;;;;4.34;100.00;149758.72;13088773;22;20023;-80
2023/12/14 12:22:17;;;;;;;6.28;4.20;;;;;;;4.03;100.00;149681.69;13035598;22;20045;-81
2023/12/14 12:27:19;;;;;;;7.95;3.58;;;;;;;4.02;100.00;149680.34;13038541;22;20045;-80
2023/12/14 12:32:20;;;;;;;7.70;3.95;;;;;;;4.05;100.00;149686.78;13070000;22;20022;-80
2023/12/14 12:37:22;;;;;;;6.38;4.68;;;;;;;4.03;100.00;149682.97;13045290;22;20023;-81
2023/12/14 12:42:25;;;;;;;8.38;5.22;;;;;;;4.14;100.00;149709.91;13079051;22;20023;-80
2023/12/14 12:47:27;;;;;;;7.70;5.30;;;;;;;3.87;100.00;149640.56;13061996;22;20019;-83
2023/12/14 12:52:29;;;;;;;7.38;5.68;;;;;;;4.01;100.00;149676.50;13088825;22;20016;-81
2023/12/14 12:57:31;;;;;;;8.00;5.57;;;;;;;4.06;100.00;149689.34;13080471;22;20015;-79
2023/12/14 13:02:32;;;;;;;9.32;6.68;;;;;;;3.83;100.00;149631.56;13039048;22;20015;-79
2023/12/14 13:07:35;;;;;;;6.45;4.93;;;;;;;3.74;100.00;149609.72;13063299;22;20023;-80
2023/12/14 13:12:38;;;;;;;7.40;5.03;;;;;;;3.75;100.00;149612.28;13077802;22;20015;-80
2023/12/14 13:17:40;;;;;;;4.75;4.25;;;;;;;3.78;100.00;149620.00;13052127;22;20050;-81
2023/12/14 13:22:42;;;;;;;8.45;6.03;;;;;;;3.73;100.00;149605.88;13057760;22;20480;-80
2023/12/14 13:27:44;;;;;;;9.10;5.97;;;;;;;3.79;100.00;149622.56;13091324;22;20023;-81
2023/12/14 13:32:46;;;;;;;8.25;7.05;;;;;;;3.78;100.00;149620.00;13055326;22;20011;-81
2023/12/14 13:37:48;;;;;;;8.25;5.82;;;;;;;3.77;100.00;149616.16;13081179;22;20019;-81
2023/12/14 13:42:49;;;;;;;8.57;6.13;;;;;;;3.69;100.00;149596.91;13079792;22;20065;-81
2023/12/14 13:48:07;;;;;;;8.13;6.10;;;;;;;3.65;100.00;149585.34;13051038;22;20047;-81
2023/12/14 13:53:09;;;;;;;9.13;6.70;;;;;;;3.67;100.00;149591.72;13077710;22;20018;-82
2023/12/14 13:58:11;;;;;;;7.30;5.85;;;;;;;3.48;100.00;149542.97;13075182;22;20095;-81
2023/12/14 14:03:13;;;;;;;9.90;6.38;;;;;;;3.59;100.00;149569.94;13049390;22;20030;-81
2023/12/14 14:08:15;;;;;;;7.97;6.95;;;;;;;3.58;100.00;149568.63;13046996;22;20045;-80
2023/12/14 14:13:20;;;;;;;6.88;5.63;;;;;;;3.44;100.00;149533.97;13048680;22;20015;-81
2023/12/14 14:18:22;;;;;;;8.90;6.10;;;;;;;3.43;100.00;149531.41;13045959;22;20015;-81
2023/12/14 14:23:24;;;;;;;7.20;5.32;;;;;;;3.44;100.00;149532.69;13071237;22;20015;-81
2023/12/14 14:28:26;;;;;;;6.25;4.55;;;;;;;3.47;100.00;149541.69;13045493;22;20019;-82
2023/12/14 14:33:27;;;;;;;6.85;5.28;;;;;;;3.36;100.00;149512.13;13073021;22;20022;-81
2023/12/14 14:38:29;;;;;;;6.32;4.65;;;;;;;3.44;100.00;149532.69;13046258;22;20083;-80
2023/12/14 14:43:31;;;;;;;5.85;3.95;;;;;;;3.25;100.00;149485.19;13072609;22;20011;-80
2023/12/14 14:48:33;;;;;;;5.95;4.07;;;;;;;3.21;100.00;149476.19;13045862;22;20030;-80
2023/12/14 14:53:37;;;;;;;3.75;3.08;;;;;;;3.19;100.00;149471.09;13044295;22;20045;-81
2023/12/14 14:58:38;;;;;;;4.13;3.25;;;;;;;3.31;100.00;149499.31;13017497;22;20092;-80
2023/12/14 15:03:41;;;;;;;3.60;3.03;;;;;;;3.24;100.00;149483.91;13070908;22;20018;-80
2023/12/14 15:08:43;;;;;;;3.17;2.42;;;;;;;3.30;100.00;149498.03;13045184;22;20025;-79
2023/12/14 15:13:45;;;;;;;3.45;2.20;;;;;;;3.27;100.00;149490.31;13020306;22;20452;-78
2023/12/14 15:18:46;;;;;;;2.67;1.85;;;;;;;3.18;100.00;149467.19;13020454;22;20027;-80
2023/12/14 15:23:49;;;;;;;2.20;1.50;;;;;;;3.12;100.00;149453.09;13049494;22;20031;-80
2023/12/14 15:28:50;;;;;;;1.40;1.20;;;;;;;3.07;100.00;149440.28;13070849;22;20025;-79
2023/12/14 15:33:52;;;;;;;2.38;1.50;;;;;;;3.09;100.00;149445.38;13047450;22;20015;-80
2023/12/14 15:38:54;;;;;;;1.92;1.27;;;;;;;3.17;100.00;149465.94;13078747;22;20043;-80
2023/12/14 15:43:56;;;;;;;2.15;0.98;;;;;;;3.24;100.00;149483.91;13045326;22;20015;-80
2023/12/14 15:48:58;;;;;;;2.33;1.90;;;;;;;3.12;100.00;149453.09;13047998;22;20094;-80
2023/12/14 15:54:00;;;;;;;1.85;1.65;;;;;;;3.05;100.00;149435.09;13071365;22;20011;-80
2023/12/14 15:59:01;;;;;;;1.95;1.65;;;;;;;3.03;100.00;149430.00;13070861;22;20441;-80
2023/12/14 16:04:03;;;;;;;1.60;1.33;;;;;;;2.95;100.00;149410.72;13044288;22;20041;-80
2023/12/14 16:09:05;;;;;;;2.33;1.48;;;;;;;3.11;100.00;149449.25;13074364;22;20019;-80
2023/12/14 16:14:07;;;;;;;1.83;1.52;;;;;;;3.11;100.00;149450.53;13075976;22;20046;-79
2023/12/14 16:19:10;;;;;;;1.75;1.65;;;;;;;3.08;100.00;149442.81;13042690;22;20094;-79
2023/12/14 16:24:12;;;;;;;2.10;1.63;;;;;;;2.96;100.00;149412.00;13039244;22;20019;-79
2023/12/14 16:29:14;;;;;;;2.65;1.73;;;;;;;2.99;100.00;149421.00;13020365;22;20106;-80
2023/12/14 16:34:16;;;;;;;1.85;1.52;;;;;;;2.97;100.00;149415.91;13076677;22;20015;-80
2023/12/14 16:39:18;;;;;;;2.75;2.47;;;;;;;3.12;100.00;149453.09;13048158;22;20046;-78
2023/12/14 16:44:19;;;;;;;3.20;1.90;;;;;;;2.93;100.00;149404.34;13074655;22;20018;-80
2023/12/14 16:49:21;;;;;;;6.40;4.68;;;;;;;2.95;100.00;149409.47;13051160;22;20023;-80
2023/12/14 16:54:23;;;;;;;7.78;2.55;;;;;;;2.99;100.00;149419.72;13053615;22;20022;-80
2023/12/14 16:59:25;;;;;;;3.17;2.30;;;;;;;3.11;100.00;149449.25;13081367;22;20026;-80
2023/12/14 17:04:27;;;;;;;3.08;2.70;;;;;;;3.02;100.00;149428.72;13076794;22;20076;-80
2023/12/14 17:09:29;;;;;;;3.58;2.63;;;;;;;2.91;100.00;149400.47;13027690;22;20039;-80
2023/12/14 17:14:31;;;;;;;3.28;2.67;;;;;;;2.92;100.00;149403.06;13077265;22;20050;-80
2023/12/14 17:19:33;;;;;;;4.20;3.22;;;;;;;3.02;100.00;149428.72;13077973;22;20015;-80
2023/12/14 17:24:35;;;;;;;3.78;2.55;;;;;;;2.91;100.00;149400.47;13027722;22;20091;-79
2023/12/14 17:29:36;;;;;;;3.70;2.78;;;;;;;2.83;100.00;149378.66;13053046;22;20019;-80
2023/12/14 17:34:38;;;;;;;3.47;3.00;;;;;;;2.71;100.00;149350.44;13061409;22;20019;-79
2023/12/14 17:39:40;;;;;;;3.72;2.78;;;;;;;2.79;100.00;149369.72;13092055;22;20026;-79
2023/12/14 17:44:42;;;;;;;4.00;2.67;;;;;;;2.85;100.00;149383.81;13074656;22;20012;-79
2023/12/14 17:49:44;;;;;;;2.83;2.35;;;;;;;2.79;100.00;149369.72;13069338;22;20030;-80
2023/12/14 17:54:46;;;;;;;3.38;2.60;;;;;;;2.88;100.00;149391.47;13061266;22;20015;-80
2023/12/14 17:59:48;;;;;;;2.58;1.80;;;;;;;2.68;100.00;149342.72;13085406;22;20023;-79
2023/12/14 18:04:50;;;;;;;3.75;2.58;;;;;;;2.71;100.00;149350.44;13063619;22;20011;-80
2023/12/14 18:09:52;;;;;;;3.08;2.58;;;;;;;2.62;100.00;149327.34;13087298;22;20038;-80
2023/12/14 18:14:54;;;;;;;3.15;2.65;;;;;;;2.79;100.00;149369.72;13099083;22;20015;-79
2023/12/14 18:19:55;;;;;;;2.58;1.98;;;;;;;2.64;100.00;149331.19;13029937;22;20019;-79
2023/12/14 18:24:57;;;;;;;3.67;2.30;;;;;;;2.74;100.00;149356.81;13059087;22;20105;-78
2023/12/14 18:29:59;;;;;;;5.80;3.40;;;;;;;2.83;100.00;149379.94;13075739;22;20022;-78
2023/12/14 18:35:01;;;;;;;7.43;4.80;;;;;;;2.86;100.00;149387.63;13059395;22;20341;-79
2023/12/14 18:40:03;;;;;;;4.95;3.97;;;;;;;2.87;100.00;149388.91;13055283;22;20025;-82
2023/12/14 18:45:05;;;;;;;5.40;4.60;;;;;;;2.80;100.00;149372.25;13052552;22;20105;-80
2023/12/14 18:50:07;;;;;;;8.35;7.05;;;;;;;2.65;100.00;149335.00;13025905;22;20019;-81
2023/12/14 18:55:11;;;;;;;7.72;5.60;;;;;;;2.78;100.00;149367.09;13076903;22;20011;-79
2023/12/14 19:00:13;;;;;;;5.53;4.20;;;;;;;2.78;100.00;149368.38;13079981;22;20019;-80
2023/12/14 19:05:15;;;;;;;5.28;3.90;;;;;;;2.68;100.00;149341.44;13078187;22;20016;-80
2023/12/14 19:10:19;;;;;;;6.72;4.70;;;;;;;2.77;100.00;149365.81;13050229;22;20016;-79
2023/12/14 19:15:20;;;;;;;5.65;3.40;;;;;;;2.76;100.00;149363.25;13049898;22;20456;-80
2023/12/14 19:20:22;;;;;;;6.80;2.95;;;;;;;2.74;100.00;149358.09;13046357;22;20019;-81
2023/12/14 19:25:24;;;;;;;4.05;3.20;;;;;;;2.88;100.00;149392.78;13022055;22;20033;-80
2023/12/14 19:30:26;;;;;;;6.38;4.22;;;;;;;2.95;100.00;149410.72;13048960;22;20020;-79
2023/12/14 19:35:28;;;;;;;4.38;3.22;;;;;;;2.82;100.00;149377.38;13052433;22;20329;-81
2023/12/14 19:40:29;;;;;;;6.97;3.88;;;;;;;2.77;100.00;149364.53;13057350;22;20016;-81
2023/12/14 19:45:31;;;;;;;5.20;3.45;;;;;;;2.99;100.00;149419.72;13052122;22;20019;-82
2023/12/14 19:50:33;;;;;;;6.50;5.43;;;;;;;2.95;100.00;149409.47;13054190;22;20030;-81
2023/12/14 19:55:35;;;;;;;5.70;4.72;;;;;;;2.87;100.00;149390.19;13083751;22;20129;-80
2023/12/14 20:00:37;;;;;;;7.15;5.05;;;;;;;2.71;100.00;149350.44;13087881;22;20015;-81
2023/12/14 20:05:43;;;;;;;6.10;5.07;;;;;;;2.78;100.00;149368.38;13054791;22;20016;-81
2023/12/14 20:10:45;;;;;;;4.38;3.75;;;;;;;2.88;100.00;149391.47;13054199;22;20023;-81
2023/12/14 20:15:48;;;;;;;5.32;3.70;;;;;;;2.68;100.00;149342.72;13045719;22;20015;-81
2023/12/14 20:20:50;;;;;;;6.38;4.18;;;;;;;2.66;100.00;149337.63;13095123;22;20015;-79
2023/12/14 20:25:53;;;;;;;8.50;5.53;;;;;;;2.78;100.00;149368.38;13058969;22;20016;-83
2023/12/14 20:30:54;;;;;;;4.70;4.28;;;;;;;2.75;100.00;149359.44;13089609;22;20019;-79
2023/12/14 20:35:56;;;;;;;5.50;4.53;;;;;;;2.91;100.00;149400.47;13067957;22;20018;-79
2023/12/14 20:40:58;;;;;;;5.65;4.15;;;;;;;3.10;100.00;149446.66;13029252;22;20088;-81
2023/12/14 20:46:00;;;;;;;4.63;2.85;;;;;;;3.00;100.00;149423.56;13036151;22;20075;-81
2023/12/14 20:51:02;;;;;;;4.75;3.55;;;;;;;2.90;100.00;149397.91;13068865;22;20364;-80
2023/12/14 20:56:04;;;;;;;3.72;2.90;;;;;;;2.95;100.00;149409.47;13057969;22;20016;-81
2023/12/14 21:01:09;;;;;;;4.55;3.30;;;;;;;2.74;100.00;149356.81;13091590;22;20053;-80
2023/12/14 21:06:11;;;;;;;4.85;3.22;;;;;;;2.87;100.00;149390.19;13069061;22;20026;-82
2023/12/14 21:11:14;;;;;;;8.32;3.58;;;;;;;2.77;100.00;149365.81;13097810;22;20024;-81
2023/12/14 21:16:16;;;;;;;5.65;3.80;;;;;;;2.74;100.00;149358.09;13048793;22;20441;-79
2023/12/14 21:21:18;;;;;;;5.05;3.58;;;;;;;2.73;100.00;149355.56;13071939;22;20019;-78
2023/12/14 21:26:20;;;;;;;4.93;3.85;;;;;;;2.78;100.00;149367.09;13085002;22;20090;-80
2023/12/14 21:31:23;;;;;;;5.93;4.28;;;;;;;2.76;100.00;149363.25;13028986;22;20102;-83
2023/12/14 21:36:24;;;;;;;7.68;4.45;;;;;;;2.65;100.00;149335.00;13050483;22;20370;-80
2023/12/14 21:41:26;;;;;;;4.95;3.97;;;;;;;2.67;100.00;149340.16;13051164;22;20086;-81
2023/12/14 21:46:28;;;;;;;5.47;3.70;;;;;;;2.75;100.00;149359.44;13052336;22;20011;-81
2023/12/14 21:51:30;;;;;;;4.57;3.28;;;;;;;2.60;100.00;149320.91;13081144;22;20026;-82
2023/12/14 21:56:32;;;;;;;4.93;3.55;;;;;;;2.59;100.00;149318.34;13084420;22;20022;-79
2023/12/14 22:01:33;;;;;;;4.65;3.47;;;;;;;2.70;100.00;149347.88;13054076;22;20019;-81
2023/12/14 22:06:35;;;;;;;3.75;3.08;;;;;;;2.64;100.00;149332.47;13078898;22;20052;-81
2023/12/14 22:11:37;;;;;;;4.35;3.20;;;;;;;2.60;100.00;149320.91;13054983;22;20034;-81
2023/12/14 22:16:38;;;;;;;4.88;3.55;;;;;;;2.81;100.00;149374.81;13059553;22;20004;-80
2023/12/14 22:21:40;;;;;;;5.07;3.90;;;;;;;2.74;100.00;149356.81;13084657;22;20006;-82
2023/12/14 22:26:42;;;;;;;4.57;3.33;;;;;;;2.62;100.00;149326.06;13111545;22;20020;-78
2023/12/14 22:31:43;;;;;;;5.15;3.58;;;;;;;2.58;100.00;149317.09;13108255;22;20022;-78
2023/12/14 22:36:45;;;;;;;4.85;3.65;;;;;;;2.69;100.00;149344.00;13053027;22;20026;-81
2023/12/14 22:41:47;;;;;;;6.03;3.35;;;;;;;2.62;100.00;149327.34;13076582;22;20076;-81
2023/12/14 22:46:48;;;;;;;6.60;3.63;;;;;;;2.59;100.00;149319.63;13049238;22;20041;-81
2023/12/14 22:51:50;;;;;;;3.25;2.95;;;;;;;2.59;100.00;149318.34;13048206;22;20043;-80
2023/12/14 22:56:54;;;;;;;5.45;4.30;;;;;;;3.00;100.00;149422.28;13048200;22;20011;-80
2023/12/14 23:01:56;;;;;;;6.63;4.53;;;;;;;2.97;100.00;149415.91;13077435;22;20019;-78